Главная страница
METAR-TAF:

METAR-TAF

Аэропорты :

Криштиану Роналду

Фуншал, Мадейра, Португалия

широта: 32-41-52N, долгота: 016-46-28W, высота над уровнем моря: 59 м

Текущие метеонаблюдения

Эта сводка был подготовлена 38 минут назад, в 22:30 UTC
Ветер 6 Узел переменных направлений с порывами до 17 Узел
Температура 22°C
Влажность 73%
Давление 1020 hPa
Видимость 10 км и более
небольшая облачность на высоте 1600 фута

METAR: LPMA 242230Z VRB06G17KT 9999 FEW016 22/17 Q1020

Время: 00:08 (23:08 UTC)

Прогноз

Эта сводка был подготовлена 6 часа и 8 минут назад, в 17:00 UTC
Прогноз действительный с 24-го 18 UTC до 25-го 18 UTC
Ветер 12 Узел от северный
Видимость 10 км и более
Отдельные облака на высоте 1600 фута
временами
С 24-го 18 UTC до 24-го 24 UTC
Ветер 10 Узел переменных направлений с порывами до 20 Узел
изменения
С 25-го 10 UTC до 25-го 12 UTC
Ветер 5 Узел переменных направлений

TAF: LPMA 241700Z 2418/2518 35012KT 9999 SCT016 TEMPO 2418/2424 VRB10G20KT BECMG 2510/2512 VRB05KT

Метеонаблюдения и прогнозы для более 4000 аэропортов (сводки METAR и TAF).

Имеющиеся станции представлены на карте желтыми и красными точками.

Чтобы увидеть название станции, наведите на нее мышь.

Затем щелкните, чтобы увидеть метеонаблюдения и метеопрогнозы.

Управление картой: чтобы увеличить масштаб, щелкните зеленые кнопки с черным крестиком; чтобы уменьшить масштаб, щелкните зеленую кнопку с тире; для просмотра соседних карт щелкайте зеленые стрелки.


METAR-TAF: